Time;durP1;ratioP1;P1;durP2;ratioP2;P2;SDS_P1;SDS_P2;PMS_P1;PMS_P2;Temp;Humidity;BMP_temperature;BMP_pressure;BME280_temperature;BME280_humidity;BME280_pressure;Samples;Min_cycle;Max_cycle;Signal;HPM_P1;HPM_P2
2021/04/25 00:00:20;;;;;;;18.23;7.30;;;;;;;9.70;44.41;101190.73;125639;1099;104200;-76
2021/04/25 00:03:09;;;;;;;17.60;7.40;;;;;;;9.70;43.79;101186.37;125591;1099;104407;-76
2021/04/25 00:05:38;;;;;;;19.33;6.60;;;;;;;9.70;43.63;101195.97;125673;1099;104182;-76
2021/04/25 00:08:07;;;;;;;17.30;7.30;;;;;;;9.68;43.95;101187.14;125650;1099;104306;-77
2021/04/25 00:10:37;;;;;;;19.53;7.40;;;;;;;9.66;43.98;101189.69;125625;1099;104245;-77
2021/04/25 00:13:05;;;;;;;21.30;7.90;;;;;;;9.65;43.64;101182.63;125674;1099;104181;-76
2021/04/25 00:15:35;;;;;;;19.33;7.63;;;;;;;9.64;43.77;101175.58;125624;1099;104341;-76
2021/04/25 00:18:04;;;;;;;19.57;7.23;;;;;;;9.63;44.01;101173.81;125648;1099;104306;-76
2021/04/25 00:20:34;;;;;;;17.97;7.00;;;;;;;9.62;44.22;101176.35;125641;1099;104284;-76
2021/04/25 00:23:03;;;;;;;18.00;7.30;;;;;;;9.60;44.32;101176.27;125607;1099;104179;-77
2021/04/25 00:25:32;;;;;;;18.90;7.37;;;;;;;9.56;43.86;101163.83;125627;1099;104172;-76
2021/04/25 00:28:02;;;;;;;20.67;7.13;;;;;;;9.55;43.77;101167.26;125678;1099;104251;-76
2021/04/25 00:30:32;;;;;;;19.03;6.77;;;;;;;9.49;44.27;101166.95;125600;1099;106309;-76
2021/04/25 00:33:02;;;;;;;18.87;7.43;;;;;;;9.45;44.29;101168.52;125665;1099;104245;-76
2021/04/25 00:35:31;;;;;;;19.50;6.90;;;;;;;9.41;43.87;101166.59;125605;1099;104217;-76
2021/04/25 00:37:59;;;;;;;17.87;7.03;;;;;;;9.39;43.77;101162.08;125668;1099;104309;-76
2021/04/25 00:40:29;;;;;;;19.50;7.43;;;;;;;9.37;43.81;101156.77;125634;1099;104207;-76
2021/04/25 00:42:59;;;;;;;15.93;6.93;;;;;;;9.35;43.76;101151.45;125657;1099;104280;-77
2021/04/25 00:45:30;;;;;;;18.03;7.27;;;;;;;9.36;43.88;101160.20;125617;1097;104861;-76
2021/04/25 00:48:00;;;;;;;23.03;7.40;;;;;;;9.37;44.00;101154.15;125642;1100;104182;-77
2021/04/25 00:50:28;;;;;;;19.27;7.73;;;;;;;9.39;44.38;101149.88;125608;1099;104187;-76
2021/04/25 00:53:00;;;;;;;20.60;7.27;;;;;;;9.41;44.10;101149.95;125662;1099;104264;-76
2021/04/25 00:55:31;;;;;;;20.33;6.70;;;;;;;9.41;43.83;101145.64;125691;1099;104187;-76
2021/04/25 00:58:01;;;;;;;15.17;6.43;;;;;;;9.41;44.58;101144.72;125602;1097;104203;-76
2021/04/25 01:00:32;;;;;;;22.17;7.87;;;;;;;9.40;43.90;101137.70;125588;1099;104354;-76
2021/04/25 01:03:01;;;;;;;20.63;8.23;;;;;;;9.40;44.07;101137.70;125655;1099;104184;-77
2021/04/25 01:05:30;;;;;;;21.73;8.70;;;;;;;9.40;44.68;101132.46;125646;1099;104191;-75
2021/04/25 01:07:59;;;;;;;20.47;8.43;;;;;;;9.42;44.19;101136.05;125607;1099;104185;-76
2021/04/25 01:10:28;;;;;;;18.70;8.37;;;;;;;9.41;44.80;101129.00;125650;1099;104178;-76
2021/04/25 01:13:00;;;;;;;21.17;8.93;;;;;;;9.40;45.03;101135.08;125617;1099;104338;-75
2021/04/25 01:15:31;;;;;;;20.27;8.33;;;;;;;9.38;44.79;101135.00;125637;1099;104181;-76
2021/04/25 01:18:00;;;;;;;20.67;8.57;;;;;;;9.35;44.69;101135.73;125653;1099;104184;-76
2021/04/25 01:20:29;;;;;;;17.27;7.50;;;;;;;9.33;44.97;101137.39;125608;1099;104173;-76
2021/04/25 01:22:59;;;;;;;18.87;7.53;;;;;;;9.32;44.97;101135.58;125628;1099;104188;-76
2021/04/25 01:25:28;;;;;;;18.27;8.00;;;;;;;9.32;45.22;101129.45;125657;1099;104236;-76
2021/04/25 01:27:57;;;;;;;16.97;7.93;;;;;;;9.32;45.77;101125.10;125615;1097;104178;-76
2021/04/25 01:30:28;;;;;;;21.60;8.70;;;;;;;9.32;45.45;101129.45;125630;1098;104184;-77
2021/04/25 01:32:57;;;;;;;20.77;8.30;;;;;;;9.31;45.44;101128.53;125658;1099;104210;-76
2021/04/25 01:35:27;;;;;;;18.43;8.27;;;;;;;9.31;45.31;101125.91;125646;1099;104735;-76
2021/04/25 01:37:58;;;;;;;19.67;8.43;;;;;;;9.31;46.00;101133.77;125623;1099;104193;-76
2021/04/25 01:40:30;;;;;;;17.27;8.20;;;;;;;9.32;45.44;101122.48;125648;1099;104203;-77
2021/04/25 01:43:01;;;;;;;17.83;7.77;;;;;;;9.33;46.12;101119.05;125631;1099;104309;-77
2021/04/25 01:45:31;;;;;;;16.03;7.30;;;;;;;9.32;45.97;101109.39;125644;1099;104163;-76
2021/04/25 01:48:02;;;;;;;17.57;7.13;;;;;;;9.33;45.97;101105.95;125662;1099;104293;-76
2021/04/25 01:50:31;;;;;;;17.97;6.73;;;;;;;9.35;45.91;101103.41;125638;1099;104329;-76
2021/04/25 01:53:01;;;;;;;13.57;5.90;;;;;;;9.37;46.20;101095.64;125629;1098;104299;-77
2021/04/25 01:55:33;;;;;;;14.53;5.93;;;;;;;9.39;46.13;101091.36;125662;1099;105701;-76
2021/04/25 01:58:03;;;;;;;13.30;5.50;;;;;;;9.41;45.84;101094.95;125701;1099;104252;-77
2021/04/25 02:00:34;;;;;;;16.17;6.50;;;;;;;9.43;45.60;101104.69;125614;1099;104345;-77
2021/04/25 02:03:06;;;;;;;14.73;5.70;;;;;;;9.44;45.71;101097.72;125608;1099;104176;-77
2021/04/25 02:05:39;;;;;;;14.43;5.70;;;;;;;9.45;45.24;101100.41;125667;1099;104184;-76
2021/04/25 02:08:10;;;;;;;13.93;5.37;;;;;;;9.46;45.77;101096.98;125663;1099;104213;-77
2021/04/25 02:10:40;;;;;;;11.87;5.37;;;;;;;9.48;45.24;101104.92;125656;1099;104201;-77
2021/04/25 02:13:10;;;;;;;13.30;5.37;;;;;;;9.50;46.07;101104.16;125657;1099;104227;-76
2021/04/25 02:15:40;;;;;;;14.03;5.47;;;;;;;9.52;45.90;101099.91;125646;1099;104332;-76
2021/04/25 02:18:09;;;;;;;11.60;5.43;;;;;;;9.56;45.70;101105.30;125694;1099;104185;-76
2021/04/25 02:20:39;;;;;;;13.80;5.33;;;;;;;9.55;45.31;101099.14;125637;1099;104309;-77
2021/04/25 02:23:09;;;;;;;12.40;5.20;;;;;;;9.54;45.89;101106.11;125666;1098;104182;-76
2021/04/25 02:25:38;;;;;;;15.85;5.90;;;;;;;9.55;45.92;101101.76;125673;1099;104274;-76
2021/04/25 02:28:07;;;;;;;27.80;11.40;;;;;;;9.53;45.96;101093.83;125653;1099;104310;-77
2021/04/25 02:30:38;;;;;;;30.93;13.93;;;;;;;9.50;46.09;101098.02;125623;1099;104283;-77
2021/04/25 02:33:08;;;;;;;28.40;14.37;;;;;;;9.47;46.54;101103.11;125687;1097;104172;-77
2021/04/25 02:35:38;;;;;;;31.10;17.13;;;;;;;9.47;46.10;101106.66;125678;1099;104293;-77
2021/04/25 02:38:08;;;;;;;30.67;15.70;;;;;;;9.48;46.77;101110.16;125666;1099;104181;-77
2021/04/25 02:40:37;;;;;;;26.30;13.25;;;;;;;9.43;46.31;101095.95;125618;1099;104351;-77
2021/04/25 02:43:06;;;;;;;29.43;14.50;;;;;;;9.49;46.64;101101.45;125625;1099;104193;-77
2021/04/25 02:45:37;;;;;;;25.10;10.70;;;;;;;9.49;46.77;101101.45;125634;1099;104233;-77
2021/04/25 02:48:09;;;;;;;27.57;13.53;;;;;;;9.49;46.21;101105.00;125666;1099;104188;-76
2021/04/25 02:50:39;;;;;;;28.47;15.10;;;;;;;9.51;46.83;101107.69;125678;1099;104251;-77
2021/04/25 02:53:09;;;;;;;25.93;12.43;;;;;;;9.51;46.68;101115.55;125530;1099;107870;-76
2021/04/25 02:55:39;;;;;;;25.03;10.30;;;;;;;9.46;46.47;101110.08;125601;1099;104248;-76
2021/04/25 02:58:09;;;;;;;24.33;10.20;;;;;;;9.44;46.68;101116.05;125572;1099;104332;-76
2021/04/25 03:00:39;;;;;;;25.27;11.53;;;;;;;9.43;46.92;101116.90;125659;1099;104307;-76
2021/04/25 03:03:09;;;;;;;31.17;12.97;;;;;;;9.37;47.33;101117.48;125636;1099;104178;-77
2021/04/25 03:05:40;;;;;;;27.67;14.60;;;;;;;9.29;47.24;101118.82;125590;1099;104184;-77
2021/04/25 03:08:25;;;;;;;30.40;15.07;;;;;;;9.19;48.03;101117.43;125647;1099;104309;-76
2021/04/25 03:10:54;;;;;;;35.57;15.03;;;;;;;9.09;47.34;101117.80;125625;1098;104213;-74
2021/04/25 03:13:23;;;;;;;30.03;13.90;;;;;;;9.02;47.62;101126.14;125615;1099;104240;-74
2021/04/25 03:15:51;;;;;;;29.27;14.23;;;;;;;8.99;48.56;101113.78;125639;1099;104248;-74
2021/04/25 03:18:20;;;;;;;32.77;14.30;;;;;;;8.98;48.58;101114.63;125640;1099;104306;-74
2021/04/25 03:20:48;;;;;;;27.90;14.27;;;;;;;8.95;48.65;101111.84;125671;1099;104297;-74
2021/04/25 03:23:17;;;;;;;27.00;13.80;;;;;;;8.94;48.78;101110.95;125613;1099;104177;-74
2021/04/25 03:25:50;;;;;;;29.43;14.40;;;;;;;8.96;49.02;101116.23;125672;1099;104299;-74
2021/04/25 03:28:19;;;;;;;30.30;14.50;;;;;;;8.96;48.74;101116.23;125661;1099;104297;-74
2021/04/25 03:30:48;;;;;;;30.00;14.03;;;;;;;8.97;49.20;101112.81;125656;1099;104682;-74
2021/04/25 03:33:17;;;;;;;30.47;13.97;;;;;;;8.96;49.61;101113.62;125666;1098;104190;-74
2021/04/25 03:35:46;;;;;;;26.90;11.90;;;;;;;8.92;49.65;101107.34;125614;1098;104248;-74
2021/04/25 03:38:14;;;;;;;25.23;11.23;;;;;;;8.88;49.56;101115.88;125653;1099;104181;-75
2021/04/25 03:40:44;;;;;;;25.80;11.50;;;;;;;8.87;50.10;101113.17;125610;1099;104184;-74
2021/04/25 03:43:12;;;;;;;34.50;16.90;;;;;;;8.85;49.97;101112.17;125545;1098;104181;-74
2021/04/25 03:45:41;;;;;;;35.27;19.83;;;;;;;8.88;50.07;101105.41;125636;1099;104313;-74
2021/04/25 03:48:10;;;;;;;30.77;16.80;;;;;;;8.95;49.87;101106.61;125645;1099;104184;-74
2021/04/25 03:50:39;;;;;;;26.77;12.83;;;;;;;9.02;49.95;101102.58;125633;1099;104592;-74
2021/04/25 03:53:08;;;;;;;27.33;11.70;;;;;;;9.08;50.30;101113.37;125596;1099;104876;-74
2021/04/25 03:55:36;;;;;;;26.13;11.60;;;;;;;9.12;50.10;101112.72;125593;1099;104188;-74
2021/04/25 03:58:05;;;;;;;23.70;11.17;;;;;;;9.14;50.39;101106.72;125644;1099;104297;-74
2021/04/25 04:00:39;;;;;;;23.17;11.03;;;;;;;9.18;50.59;101110.42;125626;1099;104155;-74
2021/04/25 04:03:09;;;;;;;21.53;10.13;;;;;;;9.21;50.58;101105.34;125684;1099;104216;-75
2021/04/25 04:05:38;;;;;;;21.63;10.60;;;;;;;9.24;50.27;101104.57;125695;1099;104178;-75
2021/04/25 04:08:07;;;;;;;22.50;10.50;;;;;;;9.25;50.89;101109.89;125612;1099;104354;-75
2021/04/25 04:10:35;;;;;;;24.73;11.67;;;;;;;9.26;51.26;101106.45;125618;1099;104179;-75
2021/04/25 04:13:05;;;;;;;22.80;10.30;;;;;;;9.31;51.43;101111.93;125588;1099;104182;-75
2021/04/25 04:15:35;;;;;;;23.97;11.33;;;;;;;9.32;51.13;101113.73;125608;1099;104258;-75
2021/04/25 04:18:04;;;;;;;26.97;11.60;;;;;;;9.34;51.03;101101.61;125625;1098;104185;-75
2021/04/25 04:20:33;;;;;;;23.23;11.20;;;;;;;9.39;50.96;101101.84;125617;1099;104210;-75
2021/04/25 04:23:02;;;;;;;24.33;10.03;;;;;;;9.46;51.06;101096.98;125665;1099;104159;-75
2021/04/25 04:25:31;;;;;;;23.97;10.83;;;;;;;9.52;51.58;101097.29;125671;1097;104162;-75
2021/04/25 04:28:00;;;;;;;24.03;9.60;;;;;;;9.62;51.60;101088.15;125613;1099;104245;-75
2021/04/25 04:30:29;;;;;;;24.23;9.80;;;;;;;9.71;51.17;101091.22;125649;1099;104415;-75
2021/04/25 04:32:59;;;;;;;20.20;9.70;;;;;;;9.83;51.48;101092.62;125633;1099;104206;-74
2021/04/25 04:35:28;;;;;;;21.27;9.07;;;;;;;9.92;50.84;101093.07;125647;1099;104162;-75
2021/04/25 04:37:58;;;;;;;19.77;9.10;;;;;;;10.02;51.56;101092.70;125621;1099;104303;-75
2021/04/25 04:40:28;;;;;;;20.00;9.90;;;;;;;10.10;51.54;101095.69;125661;1099;104182;-75
2021/04/25 04:42:56;;;;;;;19.43;9.97;;;;;;;10.18;51.26;101098.66;125654;1099;104179;-76
2021/04/25 04:45:25;;;;;;;20.63;9.20;;;;;;;10.24;51.37;101110.33;125598;1099;104538;-76
2021/04/25 04:47:54;;;;;;;22.73;9.17;;;;;;;10.25;51.48;101108.59;125647;1099;104214;-76
2021/04/25 04:50:23;;;;;;;22.20;9.40;;;;;;;10.23;51.57;101103.28;125644;1099;104175;-75
2021/04/25 04:52:51;;;;;;;19.00;8.57;;;;;;;10.26;51.69;101110.41;125556;1099;104319;-75
2021/04/25 04:55:21;;;;;;;22.67;9.77;;;;;;;10.28;51.18;101106.12;125544;1099;104232;-76
2021/04/25 04:57:50;;;;;;;20.80;8.63;;;;;;;10.29;51.52;101113.17;125509;1099;104348;-75
2021/04/25 05:00:19;;;;;;;17.97;8.13;;;;;;;10.32;51.60;101115.94;125577;1099;104219;-76
2021/04/25 05:02:48;;;;;;;16.73;8.10;;;;;;;10.36;51.73;101104.80;125573;1099;102804;-75
2021/04/25 05:05:17;;;;;;;18.67;7.97;;;;;;;10.42;51.59;101107.71;125509;1099;104350;-76
2021/04/25 05:07:46;;;;;;;20.53;8.37;;;;;;;10.48;51.27;101106.19;125582;1099;104232;-76
2021/04/25 05:10:14;;;;;;;15.43;6.97;;;;;;;10.52;51.41;101101.15;125524;1099;104184;-75
2021/04/25 05:12:43;;;;;;;19.73;6.80;;;;;;;10.56;50.93;101103.06;125571;1099;104173;-76
2021/04/25 05:15:12;;;;;;;16.67;6.77;;;;;;;10.63;51.20;101093.77;125521;1099;104338;-76
2021/04/25 05:17:41;;;;;;;15.80;6.80;;;;;;;10.75;51.04;101093.39;125549;1099;104287;-75
2021/04/25 05:20:11;;;;;;;12.47;6.03;;;;;;;10.87;50.94;101095.67;125539;1099;104251;-76
2021/04/25 05:22:40;;;;;;;16.50;6.47;;;;;;;10.96;50.45;101093.45;125517;1099;104535;-76
2021/04/25 05:25:10;;;;;;;15.33;6.07;;;;;;;11.07;50.51;101084.30;125605;1099;104197;-76
2021/04/25 05:27:39;;;;;;;13.40;6.03;;;;;;;11.18;50.47;101079.51;125608;1099;104169;-76
2021/04/25 05:30:09;;;;;;;16.07;6.23;;;;;;;11.27;50.41;101079.90;125653;1099;104245;-76
2021/04/25 05:32:38;;;;;;;13.60;6.73;;;;;;;11.36;50.50;101082.03;125650;1099;104235;-76
2021/04/25 05:35:08;;;;;;;13.33;6.03;;;;;;;11.49;50.69;101081.68;125601;1099;104162;-76
2021/04/25 05:37:38;;;;;;;15.70;7.27;;;;;;;11.62;50.59;101079.55;125651;1099;104238;-76
2021/04/25 05:40:10;;;;;;;18.63;8.00;;;;;;;11.75;50.76;101080.94;125671;1099;104296;-76
2021/04/25 05:42:39;;;;;;;21.50;8.37;;;;;;;11.78;50.28;101081.98;125685;1098;104177;-76
2021/04/25 05:45:19;;;;;;;22.60;9.73;;;;;;;11.82;50.55;101073.36;125609;1099;104265;-76
2021/04/25 05:47:50;;;;;;;18.27;8.23;;;;;;;11.82;50.29;101068.10;125606;1099;104242;-76
2021/04/25 05:50:21;;;;;;;20.40;8.80;;;;;;;11.80;50.73;101069.78;125676;1099;104169;-76
2021/04/25 05:52:50;;;;;;;20.17;8.87;;;;;;;11.81;50.61;101060.16;125630;1099;104297;-76
2021/04/25 05:55:20;;;;;;;19.37;9.30;;;;;;;11.87;50.61;101070.91;125637;1099;104200;-76
2021/04/25 05:57:49;;;;;;;19.80;8.00;;;;;;;11.86;50.35;101063.88;125634;1099;104178;-75
2021/04/25 06:00:21;;;;;;;16.07;7.20;;;;;;;11.85;50.43;101060.33;125639;1099;104316;-76
2021/04/25 06:02:50;;;;;;;12.80;6.77;;;;;;;11.92;50.39;101069.42;125659;1099;104678;-76
2021/04/25 06:05:19;;;;;;;16.27;7.23;;;;;;;12.11;50.38;101059.62;125637;1099;104197;-75
2021/04/25 06:07:50;;;;;;;14.13;6.30;;;;;;;12.29;50.44;101057.66;125602;1099;104309;-76
2021/04/25 06:10:21;;;;;;;15.50;6.17;;;;;;;12.47;50.38;101054.83;125652;1099;104181;-76
2021/04/25 06:12:51;;;;;;;19.87;7.77;;;;;;;12.59;50.24;101059.66;125538;1099;104184;-75
2021/04/25 06:15:23;;;;;;;18.13;7.77;;;;;;;12.61;49.98;101060.59;125578;1099;104175;-76
2021/04/25 06:17:52;;;;;;;17.30;6.90;;;;;;;12.54;49.96;101061.20;125611;1099;104175;-76
2021/04/25 06:20:22;;;;;;;15.83;6.60;;;;;;;12.48;49.49;101055.71;125708;1099;104162;-75
2021/04/25 06:22:51;;;;;;;17.10;7.07;;;;;;;12.37;49.62;101061.49;125635;1099;104181;-76
2021/04/25 06:25:19;;;;;;;16.23;6.43;;;;;;;12.32;49.45;101054.25;125526;1099;104210;-75
2021/04/25 06:27:51;;;;;;;15.17;6.47;;;;;;;12.38;49.62;101057.11;125611;1099;104178;-75
2021/04/25 06:30:23;;;;;;;18.30;6.67;;;;;;;12.41;49.25;101057.23;125577;1098;104194;-75
2021/04/25 06:32:52;;;;;;;13.77;6.17;;;;;;;12.43;49.33;101057.28;125627;1099;104650;-75
2021/04/25 06:35:21;;;;;;;15.33;6.30;;;;;;;12.39;49.04;101057.17;125653;1099;104287;-75
2021/04/25 06:37:49;;;;;;;13.80;6.03;;;;;;;12.39;49.05;101054.54;125631;1099;104377;-75
2021/04/25 06:40:19;;;;;;;14.57;5.73;;;;;;;12.44;48.90;101048.56;125677;1099;104160;-75
2021/04/25 06:42:47;;;;;;;15.53;6.33;;;;;;;12.47;49.13;101041.66;125663;1099;104309;-76
2021/04/25 06:45:19;;;;;;;14.80;6.00;;;;;;;12.50;48.50;101043.52;125675;1099;104359;-75
2021/04/25 06:47:49;;;;;;;13.53;6.03;;;;;;;12.54;48.56;101046.33;125624;1099;118130;-76
2021/04/25 06:50:18;;;;;;;16.33;6.10;;;;;;;12.63;48.45;101047.48;125643;1099;104277;-76
2021/04/25 06:52:48;;;;;;;13.33;6.00;;;;;;;12.68;47.99;101049.42;125683;1099;104239;-76
2021/04/25 06:55:20;;;;;;;12.90;5.47;;;;;;;12.82;48.39;101049.03;125671;1099;104168;-76
2021/04/25 06:57:51;;;;;;;12.40;5.50;;;;;;;13.03;48.36;101051.53;125630;1099;104163;-76
2021/04/25 07:00:23;;;;;;;15.50;6.33;;;;;;;13.22;48.26;101048.66;125633;1099;104174;-76
2021/04/25 07:02:55;;;;;;;11.07;4.83;;;;;;;13.60;47.99;101038.53;125589;1099;104326;-76
2021/04/25 07:05:26;;;;;;;11.13;5.40;;;;;;;13.86;46.46;101045.47;125651;1099;104178;-76
2021/04/25 07:07:57;;;;;;;14.53;5.93;;;;;;;14.08;48.20;101047.01;125700;1098;104153;-76
2021/04/25 07:10:26;;;;;;;13.10;5.50;;;;;;;14.14;47.21;101041.92;125686;1099;104171;-76
2021/04/25 07:12:55;;;;;;;14.73;5.30;;;;;;;14.16;47.15;101046.41;125630;1099;104178;-75
2021/04/25 07:15:24;;;;;;;9.40;4.70;;;;;;;14.26;47.25;101037.00;125608;1099;104334;-76
2021/04/25 07:17:54;;;;;;;14.13;5.40;;;;;;;14.31;47.38;101034.50;125604;1099;104171;-75
2021/04/25 07:20:23;;;;;;;13.47;5.23;;;;;;;14.29;47.78;101034.45;125646;1099;104287;-76
2021/04/25 07:22:53;;;;;;;12.90;5.57;;;;;;;14.21;46.83;101035.98;125654;1099;104299;-75
2021/04/25 07:25:22;;;;;;;12.93;5.67;;;;;;;14.23;47.82;101028.08;125671;1099;104256;-76
2021/04/25 07:27:51;;;;;;;9.70;4.80;;;;;;;14.25;46.87;101031.67;125601;1099;104163;-77
2021/04/25 07:30:21;;;;;;;11.70;4.97;;;;;;;14.25;47.66;101034.31;125649;1099;104287;-77
2021/04/25 07:32:50;;;;;;;10.17;5.17;;;;;;;14.25;47.45;101036.95;125668;1099;104238;-77
2021/04/25 07:35:19;;;;;;;14.13;4.93;;;;;;;14.22;47.25;101040.39;125679;1099;104162;-77
2021/04/25 07:37:49;;;;;;;13.90;5.70;;;;;;;14.20;47.22;101032.42;125635;1099;104306;-77
2021/04/25 07:40:18;;;;;;;12.67;5.50;;;;;;;14.26;47.49;101033.44;125637;1099;104325;-77
2021/04/25 07:42:47;;;;;;;13.60;5.33;;;;;;;14.34;46.45;101027.55;125669;1099;104168;-76
2021/04/25 07:45:16;;;;;;;13.60;5.50;;;;;;;14.43;46.81;101020.73;125669;1099;104171;-76
2021/04/25 07:47:45;;;;;;;11.03;5.57;;;;;;;14.48;47.22;101009.46;125678;1099;104217;-76
2021/04/25 07:50:15;;;;;;;14.80;5.37;;;;;;;14.52;46.74;101016.63;125637;1099;104325;-76
2021/04/25 07:52:44;;;;;;;11.83;5.20;;;;;;;14.59;46.72;101009.76;125673;1099;104370;-76
2021/04/25 07:55:13;;;;;;;11.30;5.00;;;;;;;14.66;47.13;100993.27;125652;1099;104174;-76
2021/04/25 07:57:42;;;;;;;11.37;5.07;;;;;;;14.72;46.47;100989.87;125616;1099;104145;-75
2021/04/25 08:00:15;;;;;;;13.70;5.63;;;;;;;14.66;46.48;100993.27;125656;1099;104168;-74
2021/04/25 08:02:43;;;;;;;11.90;5.33;;;;;;;14.57;46.47;100992.98;125751;1099;104209;-74
2021/04/25 08:05:13;;;;;;;14.03;5.30;;;;;;;14.56;46.49;100996.47;125633;1098;104191;-74
2021/04/25 08:07:42;;;;;;;11.87;5.33;;;;;;;14.47;46.34;100988.30;125619;1099;104366;-74
2021/04/25 08:10:11;;;;;;;11.27;4.93;;;;;;;14.44;46.47;100990.85;125646;1099;104179;-74
2021/04/25 08:12:40;;;;;;;11.37;5.07;;;;;;;14.40;46.33;100992.52;125703;1099;104242;-73
2021/04/25 08:15:10;;;;;;;13.00;5.43;;;;;;;14.34;46.80;100987.07;125610;1099;104345;-74
2021/04/25 08:17:39;;;;;;;11.90;5.03;;;;;;;14.24;46.81;100988.53;125642;1097;104146;-75
2021/04/25 08:20:08;;;;;;;12.70;6.10;;;;;;;14.20;47.02;100986.67;125653;1099;104242;-74
2021/04/25 08:22:37;;;;;;;12.35;5.70;;;;;;;14.21;47.25;100980.55;125639;1099;104271;-74
2021/04/25 08:25:07;;;;;;;12.83;5.33;;;;;;;14.33;46.28;100975.59;125652;1098;104178;-74
2021/04/25 08:27:36;;;;;;;13.13;6.10;;;;;;;14.47;47.00;100970.69;125628;1099;104908;-74
2021/04/25 08:30:06;;;;;;;11.97;5.27;;;;;;;14.61;47.17;100973.75;125635;1099;104399;-74
2021/04/25 08:32:35;;;;;;;11.87;5.30;;;;;;;14.81;46.42;100965.47;125633;1099;104303;-75
2021/04/25 08:35:04;;;;;;;10.70;4.57;;;;;;;15.00;46.38;100965.05;125650;1098;104373;-75
2021/04/25 08:37:34;;;;;;;13.77;5.60;;;;;;;15.20;46.64;100965.55;125685;1099;104424;-75
2021/04/25 08:40:04;;;;;;;11.77;5.30;;;;;;;15.35;46.13;100956.19;125600;1099;119792;-75
2021/04/25 08:42:33;;;;;;;9.15;4.95;;;;;;;15.36;46.00;100955.34;125571;1099;104463;-75
2021/04/25 08:45:03;;;;;;;17.00;5.50;;;;;;;15.22;46.34;100958.58;125628;1099;104145;-75
2021/04/25 08:47:53;;;;;;;13.43;5.20;;;;;;;15.08;46.84;100957.32;125647;1099;104303;-76
2021/04/25 08:50:23;;;;;;;11.50;5.33;;;;;;;15.02;46.99;100959.81;125648;1099;107891;-76
2021/04/25 08:52:51;;;;;;;9.70;4.70;;;;;;;15.00;45.92;100951.84;125667;1099;104415;-76
2021/04/25 08:55:21;;;;;;;11.20;5.03;;;;;;;15.02;46.58;100943.95;125537;1099;104175;-76
2021/04/25 08:57:51;;;;;;;10.70;5.10;;;;;;;15.11;46.85;100944.18;125652;1099;104176;-76
2021/04/25 09:00:21;;;;;;;12.57;5.60;;;;;;;15.19;45.71;100937.35;125612;1099;104175;-76
2021/04/25 09:02:53;;;;;;;13.70;5.83;;;;;;;15.42;46.78;100940.50;125651;1099;104168;-74
2021/04/25 09:05:22;;;;;;;10.77;5.30;;;;;;;15.59;45.53;100930.31;125661;1099;104175;-74
2021/04/25 09:07:56;;;;;;;14.90;6.00;;;;;;;15.65;46.01;100932.20;125606;1099;104178;-73
2021/04/25 09:10:30;;;;;;;;;;;;;;;15.71;45.47;100919.11;125686;1099;104296;-73
2021/04/25 09:13:00;;;;;;;12.88;5.67;;;;;;;15.77;46.41;100915.75;125646;1099;104165;-74
2021/04/25 09:15:33;;;;;;;14.93;6.07;;;;;;;15.85;45.87;100915.88;125629;1099;105289;-73
2021/04/25 09:18:05;;;;;;;12.10;4.95;;;;;;;15.91;45.49;100919.57;125655;1099;104168;-73
2021/04/25 09:20:37;;;;;;;13.20;5.40;;;;;;;16.00;45.38;100913.55;125612;1099;104332;-75
2021/04/25 09:23:06;;;;;;;14.70;5.55;;;;;;;16.11;45.67;100909.38;125677;1099;104178;-74
2021/04/25 09:25:36;;;;;;;12.53;5.60;;;;;;;16.39;45.70;100901.94;125599;1099;104294;-74
2021/04/25 09:28:17;;;;;;;11.77;5.23;;;;;;;16.62;45.47;100898.81;125632;1099;104300;-75
2021/04/25 09:30:57;;;;;;;11.23;5.27;;;;;;;16.84;45.23;100889.46;125640;1099;104361;-75
2021/04/25 09:33:29;;;;;;;11.70;5.10;;;;;;;17.04;45.36;100892.47;125595;1099;104162;-75
2021/04/25 09:35:59;;;;;;;10.87;5.47;;;;;;;17.17;45.16;100882.93;125663;1099;104169;-75
2021/04/25 09:38:35;;;;;;;12.90;5.57;;;;;;;17.36;45.29;100889.42;125644;1099;104171;-75
2021/04/25 09:41:04;;;;;;;14.67;5.13;;;;;;;17.50;44.95;100873.66;125630;1099;104296;-76
2021/04/25 09:43:40;;;;;;;10.70;5.07;;;;;;;17.44;44.42;100871.84;125626;1099;104294;-75
2021/04/25 09:46:09;;;;;;;10.10;4.87;;;;;;;17.27;44.55;100874.25;125589;1099;104325;-75
2021/04/25 09:48:41;;;;;;;9.10;5.00;;;;;;;17.19;44.77;100875.91;125599;1100;104169;-75
2021/04/25 09:51:13;;;;;;;10.80;5.53;;;;;;;17.10;44.72;100870.47;125631;1099;104261;-75
2021/04/25 09:53:58;;;;;;;12.70;5.20;;;;;;;16.97;44.72;100870.28;125641;1099;104229;-75
2021/04/25 09:56:41;;;;;;;12.27;5.40;;;;;;;16.75;44.39;100863.72;125672;1099;104214;-74
2021/04/25 09:59:10;;;;;;;16.12;6.40;;;;;;;16.58;44.38;100859.88;125608;1099;104245;-75
2021/04/25 10:01:41;;;;;;;13.83;5.67;;;;;;;16.47;44.79;100850.02;125660;1099;105291;-75
2021/04/25 10:04:28;;;;;;;15.20;6.70;;;;;;;16.44;44.66;100841.09;125645;1099;104248;-74
2021/04/25 10:06:58;;;;;;;14.50;6.20;;;;;;;16.49;44.62;100828.85;125623;1100;104364;-75
2021/04/25 10:09:29;;;;;;;15.03;5.80;;;;;;;16.60;44.71;100835.21;125663;1099;104210;-74
2021/04/25 10:12:00;;;;;;;12.03;5.07;;;;;;;16.70;44.79;100828.29;125579;1099;105348;-74
2021/04/25 10:14:31;;;;;;;11.33;5.77;;;;;;;16.75;44.66;100826.63;125639;1099;104175;-74
2021/04/25 10:17:01;;;;;;;13.87;6.27;;;;;;;16.82;44.77;100815.23;125633;1099;104175;-74
2021/04/25 10:19:31;;;;;;;14.80;6.40;;;;;;;16.89;44.54;100808.28;125659;1099;104174;-74
2021/04/25 10:21:59;;;;;;;14.87;6.13;;;;;;;16.93;44.67;100796.00;125657;1099;104267;-76
2021/04/25 10:24:28;;;;;;;11.97;5.87;;;;;;;16.99;44.36;100796.08;125581;1099;104360;-75
2021/04/25 10:27:05;;;;;;;13.30;6.40;;;;;;;17.11;44.09;100790.04;125661;1099;104177;-75
2021/04/25 10:29:38;;;;;;;10.53;5.53;;;;;;;17.15;44.29;100784.80;125635;1099;104239;-75
2021/04/25 10:32:09;;;;;;;11.40;5.90;;;;;;;17.38;44.73;100782.45;125676;1099;104168;-75
2021/04/25 10:34:38;;;;;;;13.23;6.07;;;;;;;17.50;44.38;100768.45;125654;1099;104227;-74
2021/04/25 10:37:08;;;;;;;15.17;6.07;;;;;;;17.55;44.56;100772.04;125643;1099;104171;-74
2021/04/25 10:39:41;;;;;;;14.60;5.70;;;;;;;17.66;44.46;100771.28;125662;1098;104189;-74
2021/04/25 10:42:29;;;;;;;11.47;5.83;;;;;;;17.61;44.09;100776.53;125705;1098;104290;-74
2021/04/25 10:45:16;;;;;;;13.43;5.87;;;;;;;17.55;44.32;100769.38;125625;1099;104293;-74
2021/04/25 10:47:47;;;;;;;13.40;6.25;;;;;;;17.71;44.41;100762.47;125631;1099;104171;-75
2021/04/25 10:50:41;;;;;;;13.77;6.40;;;;;;;17.87;44.03;100754.67;125596;1099;104386;-74
2021/04/25 10:53:26;;;;;;;12.10;5.87;;;;;;;17.96;43.60;100747.70;125618;1099;104184;-74
2021/04/25 10:56:22;;;;;;;10.90;5.47;;;;;;;17.99;43.49;100743.33;125655;1099;104602;-75
2021/04/25 10:59:26;;;;;;;11.00;5.10;;;;;;;18.03;43.81;100735.41;125538;1099;104165;-74
2021/04/25 11:01:57;;;;;;;6.33;3.20;;;;;;;18.11;42.74;100738.13;125456;1099;104226;-74
2021/04/25 11:04:51;;;;;;;5.87;3.03;;;;;;;18.21;41.81;100724.03;125603;1099;104171;-75
2021/04/25 11:07:35;;;;;;;8.00;2.97;;;;;;;18.26;42.08;100726.72;125698;1099;104178;-74
2021/04/25 11:10:05;;;;;;;5.55;2.87;;;;;;;18.26;41.73;100724.98;125640;1099;104242;-75
2021/04/25 11:12:40;;;;;;;5.47;2.97;;;;;;;18.31;41.53;100717.05;125654;1099;104168;-74
2021/04/25 11:15:10;;;;;;;4.27;2.97;;;;;;;18.31;41.08;100714.39;125687;1099;104230;-75
2021/04/25 11:17:39;;;;;;;7.33;3.33;;;;;;;18.25;41.40;100709.91;125612;1099;104384;-75
2021/04/25 11:20:32;;;;;;;7.73;2.90;;;;;;;18.14;40.41;100706.28;125651;1099;104174;-75